createdAt,value
2023-08-13T00:00:18.121Z,87.77
2023-08-13T00:01:17.838Z,87.87
2023-08-13T00:02:18.178Z,87.81
2023-08-13T00:03:18.000Z,88.21
2023-08-13T00:04:17.949Z,88.21
2023-08-13T00:05:17.975Z,88.51
2023-08-13T00:06:17.984Z,88.61
2023-08-13T00:07:17.984Z,88.51
2023-08-13T00:08:18.022Z,88.31
2023-08-13T00:09:18.055Z,88.21
2023-08-13T00:10:18.079Z,88.31
2023-08-13T00:11:18.107Z,88.21
2023-08-13T00:12:18.103Z,88.01
2023-08-13T00:13:18.115Z,88.01
2023-08-13T00:14:18.104Z,88.21
2023-08-13T00:15:18.146Z,88.11
2023-08-13T00:16:18.232Z,88.31
2023-08-13T00:17:18.277Z,88.41
2023-08-13T00:18:18.184Z,88.61
2023-08-13T00:19:18.180Z,88.31
2023-08-13T00:20:18.209Z,88.11
2023-08-13T00:21:18.219Z,88.01
2023-08-13T00:22:18.220Z,88.05
2023-08-13T00:23:18.231Z,88.15
2023-08-13T00:24:18.231Z,88.25
2023-08-13T00:25:18.232Z,88.85
2023-08-13T00:26:18.221Z,88.75
2023-08-13T00:27:18.227Z,88.25
2023-08-13T00:28:18.248Z,88.55
2023-08-13T00:29:18.257Z,88.75
2023-08-13T00:30:18.263Z,89.15
2023-08-13T00:31:18.336Z,88.65
2023-08-13T00:32:18.257Z,88.75
2023-08-13T00:33:18.241Z,88.45
2023-08-13T00:34:18.234Z,88.79
2023-08-13T00:35:18.238Z,89.40
2023-08-13T00:36:18.232Z,89.36
2023-08-13T00:37:18.232Z,88.95
2023-08-13T00:38:18.291Z,89.06
2023-08-13T00:39:18.360Z,88.70
2023-08-13T00:40:18.368Z,88.49
2023-08-13T00:41:18.356Z,88.49
2023-08-13T00:42:18.349Z,89.00
2023-08-13T00:43:18.361Z,89.40
2023-08-13T00:44:18.362Z,90.11
2023-08-13T00:45:18.363Z,90.70
2023-08-13T00:46:18.469Z,90.06
2023-08-13T00:47:18.444Z,89.46
2023-08-13T00:48:18.446Z,89.70
2023-08-13T00:49:18.443Z,90.20
2023-08-13T00:50:18.496Z,89.26
2023-08-13T00:51:18.508Z,89.15
2023-08-13T00:52:18.502Z,89.40
2023-08-13T00:53:18.504Z,89.80
2023-08-13T00:54:18.502Z,89.46
2023-08-13T00:55:18.575Z,89.06
2023-08-13T00:56:18.568Z,88.95
2023-08-13T00:57:18.639Z,88.95
2023-08-13T00:58:18.643Z,89.80
2023-08-13T00:59:18.668Z,89.76
2023-08-13T01:00:18.655Z,89.36
2023-08-13T01:01:18.828Z,88.85
2023-08-13T01:02:18.960Z,88.95
2023-08-13T01:03:18.785Z,88.41
2023-08-13T01:04:18.828Z,88.25
2023-08-13T01:05:18.822Z,88.45
2023-08-13T01:06:18.814Z,88.51
2023-08-13T01:07:18.837Z,88.21
2023-08-13T01:08:18.856Z,88.11
2023-08-13T01:09:18.873Z,88.15
2023-08-13T01:10:18.875Z,88.45
2023-08-13T01:11:18.887Z,88.55
2023-08-13T01:12:18.898Z,88.75
2023-08-13T01:13:18.907Z,88.65
2023-08-13T01:14:18.909Z,88.35
2023-08-13T01:15:18.916Z,88.25
2023-08-13T01:16:18.950Z,88.15
2023-08-13T01:17:18.930Z,88.35
2023-08-13T01:18:18.967Z,89.06
2023-08-13T01:19:18.951Z,88.35
2023-08-13T01:20:19.017Z,88.35
2023-08-13T01:21:19.013Z,88.75
2023-08-13T01:22:19.088Z,88.95
2023-08-13T01:23:19.129Z,88.55
2023-08-13T01:24:19.082Z,88.45
2023-08-13T01:25:19.114Z,88.85
2023-08-13T01:26:19.142Z,88.65
2023-08-13T01:27:19.142Z,88.95
2023-08-13T01:28:19.225Z,89.15
2023-08-13T01:29:19.226Z,89.06
2023-08-13T01:30:19.223Z,89.06
2023-08-13T01:31:19.304Z,88.81
2023-08-13T01:32:19.270Z,88.51
2023-08-13T01:33:19.274Z,88.35
2023-08-13T01:34:19.339Z,89.66
2023-08-13T01:35:19.327Z,89.36
2023-08-13T01:36:19.312Z,89.36
2023-08-13T01:37:19.302Z,89.26
2023-08-13T01:38:19.304Z,89.01
2023-08-13T01:39:19.323Z,88.81
2023-08-13T01:40:19.316Z,88.95
2023-08-13T01:41:19.336Z,88.81
2023-08-13T01:42:19.328Z,88.95
2023-08-13T01:43:19.345Z,89.15
2023-08-13T01:44:19.332Z,89.22
2023-08-13T01:45:19.432Z,88.75
2023-08-13T01:46:19.315Z,89.56
2023-08-13T01:47:19.324Z,89.51
2023-08-13T01:48:19.335Z,89.11
2023-08-13T01:49:19.332Z,88.91
2023-08-13T01:50:19.390Z,89.42
2023-08-13T01:51:19.399Z,89.01
2023-08-13T01:52:19.415Z,89.01
2023-08-13T01:53:19.401Z,89.31
2023-08-13T01:54:19.386Z,89.22
2023-08-13T01:55:19.395Z,89.01
2023-08-13T01:56:19.392Z,88.71
2023-08-13T01:57:19.411Z,88.51
2023-08-13T01:58:19.400Z,88.41
2023-08-13T01:59:19.395Z,88.41
2023-08-13T02:00:19.404Z,88.21
2023-08-13T02:01:19.428Z,88.21
2023-08-13T02:02:19.481Z,88.07
2023-08-13T02:03:19.475Z,87.96
2023-08-13T02:04:19.466Z,88.01
2023-08-13T02:05:19.641Z,88.01
2023-08-13T02:06:19.612Z,87.91
2023-08-13T02:07:19.676Z,88.41
2023-08-13T02:08:19.673Z,88.31
2023-08-13T02:09:19.679Z,88.31
2023-08-13T02:10:19.681Z,88.41
2023-08-13T02:11:19.697Z,88.31
2023-08-13T02:12:20.002Z,88.21
2023-08-13T02:13:19.700Z,88.21
2023-08-13T02:14:19.678Z,88.11
2023-08-13T02:15:19.671Z,88.31
2023-08-13T02:16:19.728Z,88.55
2023-08-13T02:17:19.723Z,88.75
2023-08-13T02:18:19.744Z,89.06
2023-08-13T02:19:19.741Z,89.11
2023-08-13T02:20:19.761Z,88.81
2023-08-13T02:21:19.764Z,88.81
2023-08-13T02:22:19.797Z,88.71
2023-08-13T02:23:19.815Z,89.11
2023-08-13T02:24:19.810Z,89.15
2023-08-13T02:25:19.898Z,88.91
2023-08-13T02:26:19.929Z,88.61
2023-08-13T02:27:19.971Z,88.41
2023-08-13T02:28:20.049Z,88.31
2023-08-13T02:29:20.037Z,88.71
2023-08-13T02:30:20.039Z,88.51
2023-08-13T02:31:20.070Z,88.31
2023-08-13T02:32:20.074Z,88.61
2023-08-13T02:33:20.080Z,88.51
2023-08-13T02:34:20.109Z,88.21
2023-08-13T02:35:20.110Z,88.25
2023-08-13T02:36:20.099Z,88.75
2023-08-13T02:37:20.101Z,89.06
2023-08-13T02:38:20.091Z,88.61
2023-08-13T02:39:20.097Z,88.45
2023-08-13T02:40:20.121Z,88.65
2023-08-13T02:41:20.090Z,88.75
2023-08-13T02:42:20.104Z,88.41
2023-08-13T02:43:20.133Z,88.41
2023-08-13T02:44:20.131Z,88.31
2023-08-13T02:45:20.134Z,88.11
2023-08-13T02:46:20.150Z,87.91
2023-08-13T02:47:20.128Z,87.81
2023-08-13T02:48:20.210Z,87.71
2023-08-13T02:49:20.165Z,87.51
2023-08-13T02:50:20.151Z,88.11
2023-08-13T02:51:20.172Z,87.71
2023-08-13T02:52:20.196Z,87.60
2023-08-13T02:53:20.173Z,87.81
2023-08-13T02:54:20.173Z,87.91
2023-08-13T02:55:20.166Z,87.81
2023-08-13T02:56:20.178Z,87.57
2023-08-13T02:57:20.175Z,87.30
2023-08-13T02:58:20.180Z,87.60
2023-08-13T02:59:20.169Z,88.21
2023-08-13T03:00:20.171Z,88.01
2023-08-13T03:01:20.218Z,87.60
2023-08-13T03:02:20.200Z,87.71
2023-08-13T03:03:20.230Z,87.81
2023-08-13T03:04:20.234Z,87.71
2023-08-13T03:05:20.202Z,87.51
2023-08-13T03:06:20.284Z,87.41
2023-08-13T03:07:20.291Z,87.41
2023-08-13T03:08:20.284Z,87.60
2023-08-13T03:09:20.294Z,87.30
2023-08-13T03:10:20.290Z,87.21
2023-08-13T03:11:20.304Z,87.10
2023-08-13T03:12:20.323Z,87.10
2023-08-13T03:13:20.318Z,87.21
2023-08-13T03:14:20.321Z,87.30
2023-08-13T03:15:20.352Z,87.10
2023-08-13T03:16:20.369Z,87.10
2023-08-13T03:17:20.365Z,87.24
2023-08-13T03:18:20.356Z,87.24
2023-08-13T03:19:20.348Z,87.24
2023-08-13T03:20:20.339Z,87.04
2023-08-13T03:21:20.343Z,86.94
2023-08-13T03:22:20.349Z,87.59
2023-08-13T03:23:20.356Z,87.69
2023-08-13T03:24:20.354Z,87.75
2023-08-13T03:25:20.375Z,87.65
2023-08-13T03:26:20.373Z,87.59
2023-08-13T03:27:20.391Z,88.09
2023-08-13T03:28:20.395Z,87.99
2023-08-13T03:29:20.403Z,87.79
2023-08-13T03:30:20.416Z,87.99
2023-08-13T03:31:20.426Z,88.19
2023-08-13T03:32:20.406Z,87.89
2023-08-13T03:33:20.435Z,87.59
2023-08-13T03:34:20.433Z,87.19
2023-08-13T03:35:20.436Z,87.39
2023-08-13T03:36:20.448Z,87.79
2023-08-13T03:37:20.466Z,87.69
2023-08-13T03:38:20.506Z,87.89
2023-08-13T03:39:20.591Z,88.09
2023-08-13T03:40:20.596Z,87.99
2023-08-13T03:41:20.631Z,87.99
2023-08-13T03:42:20.640Z,88.19
2023-08-13T03:43:20.653Z,88.39
2023-08-13T03:44:20.671Z,88.39
2023-08-13T03:45:20.705Z,88.54
2023-08-13T03:46:20.786Z,88.19
2023-08-13T03:47:20.794Z,87.79
2023-08-13T03:48:20.835Z,87.89
2023-08-13T03:49:20.850Z,87.49
2023-08-13T03:50:20.882Z,87.59
2023-08-13T03:51:20.908Z,87.69
2023-08-13T03:52:20.924Z,87.79
2023-08-13T03:53:20.948Z,87.39
2023-08-13T03:54:20.966Z,87.29
2023-08-13T03:55:21.010Z,87.39
2023-08-13T03:56:21.092Z,87.08
2023-08-13T03:57:21.129Z,86.72
2023-08-13T03:58:21.152Z,86.83
2023-08-13T03:59:21.150Z,86.83
2023-08-13T04:00:21.138Z,87.13
2023-08-13T04:01:21.228Z,86.93
2023-08-13T04:02:21.282Z,86.93
2023-08-13T04:03:26.440Z,87.77
2023-08-13T04:04:21.326Z,88.34
2023-08-13T04:05:21.325Z,88.03
2023-08-13T04:06:21.368Z,87.23
2023-08-13T04:07:21.390Z,87.02
2023-08-13T04:08:21.454Z,87.02
2023-08-13T04:09:21.487Z,87.07
2023-08-13T04:10:21.442Z,86.97
2023-08-13T04:11:21.494Z,87.27
2023-08-13T04:12:21.502Z,87.27
2023-08-13T04:13:21.525Z,86.57
2023-08-13T04:14:21.557Z,86.66
2023-08-13T04:15:21.548Z,86.97
2023-08-13T04:16:21.640Z,87.27
2023-08-13T04:17:21.602Z,87.77
2023-08-13T04:18:21.638Z,87.98
2023-08-13T04:19:21.674Z,88.28
2023-08-13T04:20:21.695Z,87.73
2023-08-13T04:21:21.685Z,87.33
2023-08-13T04:22:22.451Z,87.53
2023-08-13T04:23:21.734Z,87.23
2023-08-13T04:24:21.740Z,86.93
2023-08-13T04:25:21.818Z,86.93
2023-08-13T04:26:21.813Z,87.23
2023-08-13T04:27:21.791Z,86.93
2023-08-13T04:28:21.853Z,87.13
2023-08-13T04:29:21.841Z,86.52
2023-08-13T04:30:21.855Z,87.57
2023-08-13T04:31:21.946Z,87.63
2023-08-13T04:32:21.933Z,87.43
2023-08-13T04:33:22.560Z,87.33
2023-08-13T04:34:21.955Z,87.33
2023-08-13T04:35:21.930Z,87.63
2023-08-13T04:36:22.016Z,87.33
2023-08-13T04:37:22.032Z,87.23
2023-08-13T04:38:22.050Z,87.33
2023-08-13T04:39:22.094Z,87.53
2023-08-13T04:40:22.110Z,87.49
2023-08-13T04:41:22.109Z,87.08
2023-08-13T04:42:22.110Z,86.79
2023-08-13T04:43:22.147Z,86.68
2023-08-13T04:44:22.200Z,86.68
2023-08-13T04:45:22.271Z,86.58
2023-08-13T04:46:22.270Z,86.48
2023-08-13T04:47:22.275Z,86.38
2023-08-13T04:48:22.280Z,86.48
2023-08-13T04:49:22.333Z,86.48
2023-08-13T04:50:22.331Z,86.58
2023-08-13T04:51:22.355Z,86.38
2023-08-13T04:52:22.313Z,86.28
2023-08-13T04:53:22.297Z,86.28
2023-08-13T04:54:22.336Z,85.98
2023-08-13T04:55:22.409Z,85.78
2023-08-13T04:56:22.475Z,86.08
2023-08-13T04:57:22.453Z,85.84
2023-08-13T04:58:22.507Z,85.94
2023-08-13T04:59:22.568Z,85.74
2023-08-13T05:00:22.632Z,85.53
2023-08-13T05:01:22.742Z,85.74
2023-08-13T05:02:22.705Z,85.94
2023-08-13T05:03:22.748Z,86.24
2023-08-13T05:04:22.871Z,86.14
2023-08-13T05:05:22.845Z,85.90
2023-08-13T05:06:22.915Z,85.90
2023-08-13T05:07:22.917Z,85.70
2023-08-13T05:08:22.885Z,85.75
2023-08-13T05:09:22.940Z,85.56
2023-08-13T05:10:22.979Z,85.46
2023-08-13T05:11:23.073Z,85.31
2023-08-13T05:12:23.046Z,85.31
2023-08-13T05:13:23.105Z,85.11
2023-08-13T05:14:23.121Z,85.02
2023-08-13T05:15:23.085Z,85.16
2023-08-13T05:16:23.281Z,85.16
2023-08-13T05:17:23.218Z,85.36
2023-08-13T05:18:23.214Z,85.31
2023-08-13T05:19:23.191Z,85.02
2023-08-13T05:20:23.201Z,84.71
2023-08-13T05:21:23.183Z,84.67
2023-08-13T05:22:23.226Z,84.37
2023-08-13T05:23:23.260Z,84.03
2023-08-13T05:24:23.290Z,82.75
2023-08-13T05:25:23.339Z,82.47
2023-08-13T05:26:23.354Z,81.43
2023-08-13T05:27:23.420Z,80.43
2023-08-13T05:28:23.437Z,79.89
2023-08-13T05:29:23.453Z,79.69
2023-08-13T05:30:23.479Z,79.43
2023-08-13T05:31:23.565Z,79.83
2023-08-13T05:32:23.573Z,79.97
2023-08-13T05:33:23.595Z,80.17
2023-08-13T05:34:23.635Z,80.41
2023-08-13T05:35:23.672Z,80.91
2023-08-13T05:36:23.697Z,81.21
2023-08-13T05:37:23.737Z,80.85
2023-08-13T05:38:23.758Z,81.15
2023-08-13T05:39:23.800Z,81.82
2023-08-13T05:40:23.836Z,81.42
2023-08-13T05:41:23.861Z,81.93
2023-08-13T05:42:23.903Z,82.18
2023-08-13T05:43:23.978Z,82.11
2023-08-13T05:44:23.961Z,80.07
2023-08-13T05:45:24.039Z,79.86
2023-08-13T05:46:23.960Z,79.77
2023-08-13T05:47:23.984Z,80.30
2023-08-13T05:48:23.980Z,80.00
2023-08-13T05:49:23.988Z,80.30
2023-08-13T05:50:23.999Z,80.21
2023-08-13T05:51:24.021Z,79.91
2023-08-13T05:52:24.057Z,80.21
2023-08-13T05:53:24.081Z,80.44
2023-08-13T05:54:24.081Z,80.00
2023-08-13T05:55:24.094Z,80.30
2023-08-13T05:56:24.106Z,79.71
2023-08-13T05:57:24.183Z,79.60
2023-08-13T05:58:24.181Z,79.36
2023-08-13T05:59:24.198Z,79.47
2023-08-13T06:00:24.306Z,79.53
2023-08-13T06:01:24.243Z,77.79
2023-08-13T06:02:24.287Z,77.66
2023-08-13T06:03:27.267Z,76.92
2023-08-13T06:04:24.278Z,75.78
2023-08-13T06:05:24.348Z,75.95
2023-08-13T06:06:24.345Z,75.01
2023-08-13T06:07:24.443Z,74.38
2023-08-13T06:08:24.432Z,74.28
2023-08-13T06:09:24.472Z,72.35
2023-08-13T06:10:24.504Z,71.15
2023-08-13T06:11:24.552Z,72.71
2023-08-13T06:12:24.550Z,71.69
2023-08-13T06:13:24.568Z,72.38
2023-08-13T06:14:24.588Z,71.95
2023-08-13T06:15:24.620Z,72.45
2023-08-13T06:16:24.652Z,71.85
2023-08-13T06:17:24.710Z,71.81
2023-08-13T06:18:24.686Z,71.51
2023-08-13T06:19:24.726Z,71.51
2023-08-13T06:20:24.774Z,71.62
2023-08-13T06:21:24.796Z,71.88
2023-08-13T06:22:24.851Z,71.78
2023-08-13T06:23:24.864Z,71.72
2023-08-13T06:24:24.883Z,72.18
2023-08-13T06:25:24.930Z,71.75
2023-08-13T06:26:24.935Z,71.31
2023-08-13T06:27:24.976Z,69.92
2023-08-13T06:28:24.971Z,70.36
2023-08-13T06:29:25.001Z,69.53
2023-08-13T06:30:25.029Z,69.46
2023-08-13T06:31:41.690Z,69.46
2023-08-13T06:32:25.098Z,69.53
2023-08-13T06:33:25.098Z,69.49
2023-08-13T06:34:25.092Z,68.96
2023-08-13T06:35:25.125Z,67.77
2023-08-13T06:36:25.141Z,67.11
2023-08-13T06:37:25.165Z,66.38
2023-08-13T06:38:25.300Z,65.85
2023-08-13T06:39:25.282Z,66.64
2023-08-13T06:40:25.286Z,68.96
2023-08-13T06:41:25.301Z,68.04
2023-08-13T06:42:25.319Z,69.43
2023-08-13T06:43:25.332Z,67.83
2023-08-13T06:44:25.368Z,67.54
2023-08-13T06:45:25.397Z,66.91
2023-08-13T06:46:25.423Z,68.00
2023-08-13T06:47:25.429Z,66.97
2023-08-13T06:48:25.411Z,66.97
2023-08-13T06:49:25.423Z,67.80
2023-08-13T06:50:25.442Z,67.07
2023-08-13T06:51:25.477Z,66.58
2023-08-13T06:52:25.555Z,67.24
2023-08-13T06:53:25.521Z,68.40
2023-08-13T06:54:25.584Z,67.83
2023-08-13T06:55:25.662Z,66.97
2023-08-13T06:56:25.636Z,67.00
2023-08-13T06:57:25.696Z,67.57
2023-08-13T06:58:25.754Z,65.58
2023-08-13T06:59:25.826Z,67.67
2023-08-13T07:00:38.585Z,67.04
2023-08-13T07:01:25.944Z,68.10
2023-08-13T07:02:25.978Z,67.47
2023-08-13T07:03:26.041Z,67.70
2023-08-13T07:04:26.130Z,66.97
2023-08-13T07:05:26.192Z,66.88
2023-08-13T07:06:26.184Z,66.35
2023-08-13T07:07:26.166Z,65.95
2023-08-13T07:08:26.255Z,65.95
2023-08-13T07:09:26.253Z,65.55
2023-08-13T07:10:26.243Z,66.71
2023-08-13T07:11:26.280Z,67.18
2023-08-13T07:12:26.374Z,66.38
2023-08-13T07:13:26.339Z,66.41
2023-08-13T07:14:26.411Z,66.64
2023-08-13T07:15:26.462Z,65.68
2023-08-13T07:16:26.586Z,65.06
2023-08-13T07:17:26.618Z,65.29
2023-08-13T07:18:26.605Z,64.00
2023-08-13T07:19:26.587Z,64.46
2023-08-13T07:20:26.632Z,65.19
2023-08-13T07:21:26.667Z,63.90
2023-08-13T07:22:26.662Z,63.89
2023-08-13T07:23:26.727Z,65.68
2023-08-13T07:24:26.807Z,64.89
2023-08-13T07:25:26.842Z,64.19
2023-08-13T07:26:26.835Z,64.59
2023-08-13T07:27:26.864Z,65.35
2023-08-13T07:28:26.895Z,64.70
2023-08-13T07:29:26.942Z,62.79
2023-08-13T07:30:26.950Z,61.33
2023-08-13T07:31:26.938Z,61.50
2023-08-13T07:32:27.008Z,61.66
2023-08-13T07:33:27.033Z,61.53
2023-08-13T07:34:27.100Z,58.80
2023-08-13T07:35:27.147Z,59.66
2023-08-13T07:36:27.128Z,59.06
2023-08-13T07:37:27.918Z,60.32
2023-08-13T07:38:27.214Z,60.45
2023-08-13T07:39:27.278Z,59.17
2023-08-13T07:40:27.283Z,60.64
2023-08-13T07:41:27.246Z,62.62
2023-08-13T07:42:27.291Z,60.99
2023-08-13T07:43:27.375Z,62.24
2023-08-13T07:44:27.336Z,63.79
2023-08-13T07:45:27.493Z,63.86
2023-08-13T07:46:27.475Z,62.15
2023-08-13T07:47:27.485Z,59.66
2023-08-13T07:48:27.486Z,58.59
2023-08-13T07:49:27.534Z,57.35
2023-08-13T07:50:27.578Z,59.14
2023-08-13T07:51:27.571Z,57.88
2023-08-13T07:52:27.622Z,58.90
2023-08-13T07:53:27.698Z,60.10
2023-08-13T07:54:27.652Z,58.67
2023-08-13T07:55:27.668Z,58.53
2023-08-13T07:56:27.736Z,61.18
2023-08-13T07:57:27.731Z,59.56
2023-08-13T07:58:27.778Z,59.47
2023-08-13T07:59:27.782Z,57.33
2023-08-13T08:00:27.847Z,57.33
2023-08-13T08:01:27.914Z,57.13
2023-08-13T08:02:27.973Z,58.42
2023-08-13T08:03:28.070Z,56.24
2023-08-13T08:04:28.083Z,57.47
2023-08-13T08:05:28.099Z,55.64
2023-08-13T08:06:29.216Z,56.06
2023-08-13T08:07:28.167Z,56.41
2023-08-13T08:08:28.221Z,57.73
2023-08-13T08:09:28.292Z,58.65
2023-08-13T08:10:28.311Z,60.97
2023-08-13T08:11:28.371Z,57.85
2023-08-13T08:12:28.383Z,57.60
2023-08-13T08:13:29.660Z,55.47
2023-08-13T08:14:28.385Z,55.40
2023-08-13T08:15:28.447Z,57.64
2023-08-13T08:16:28.452Z,59.12
2023-08-13T08:17:28.512Z,57.88
2023-08-13T08:18:28.488Z,57.58
2023-08-13T08:19:28.525Z,56.49
2023-08-13T08:20:28.534Z,58.22
2023-08-13T08:21:28.544Z,55.87
2023-08-13T08:22:28.594Z,53.34
2023-08-13T08:23:28.811Z,55.68
2023-08-13T08:27:20.634Z,54.82
2023-08-13T08:28:20.800Z,54.58
2023-08-13T08:29:21.634Z,56.14
2023-08-13T08:30:20.771Z,57.26
2023-08-13T08:31:20.786Z,55.62
2023-08-13T08:32:20.788Z,56.41
2023-08-13T08:33:20.824Z,56.12
2023-08-13T08:34:20.865Z,55.79
2023-08-13T08:35:20.882Z,53.96
2023-08-13T08:36:20.893Z,55.62
2023-08-13T08:37:20.915Z,55.07
2023-08-13T08:38:21.002Z,53.94
2023-08-13T08:39:21.056Z,54.28
2023-08-13T08:40:21.096Z,55.15
2023-08-13T08:41:21.113Z,53.08
2023-08-13T08:42:21.126Z,53.67
2023-08-13T08:43:21.140Z,53.34
2023-08-13T08:44:21.200Z,55.26
2023-08-13T08:45:21.315Z,54.08
2023-08-13T08:46:21.268Z,52.19
2023-08-13T08:47:21.302Z,52.43
2023-08-13T08:48:21.355Z,50.19
2023-08-13T08:49:21.405Z,51.84
2023-08-13T08:50:21.478Z,51.59
2023-08-13T08:51:21.506Z,52.58
2023-08-13T08:52:21.515Z,52.92
2023-08-13T08:53:21.541Z,51.10
2023-08-13T08:54:21.599Z,51.67
2023-08-13T08:55:21.634Z,51.42
2023-08-13T08:56:21.688Z,49.35
2023-08-13T08:57:21.769Z,51.62
2023-08-13T08:58:21.764Z,51.59
2023-08-13T08:59:21.816Z,54.16
2023-08-13T09:00:21.840Z,54.60
2023-08-13T09:01:21.936Z,53.66
2023-08-13T09:02:21.897Z,53.78
2023-08-13T09:03:21.965Z,51.25
2023-08-13T09:04:22.028Z,52.61
2023-08-13T09:05:22.057Z,52.53
2023-08-13T09:06:22.939Z,52.92
2023-08-13T09:07:22.180Z,52.31
2023-08-13T09:08:22.236Z,52.28
2023-08-13T09:09:22.271Z,53.20
2023-08-13T09:10:22.282Z,53.15
2023-08-13T09:11:22.325Z,52.33
2023-08-13T09:12:22.399Z,53.07
2023-08-13T09:13:22.407Z,50.66
2023-08-13T09:14:22.418Z,49.06
2023-08-13T09:15:22.399Z,49.55
2023-08-13T09:16:22.479Z,49.60
2023-08-13T09:17:22.531Z,53.37
2023-08-13T09:18:22.579Z,51.84
2023-08-13T09:19:22.607Z,53.69
2023-08-13T09:20:22.621Z,54.75
2023-08-13T09:21:22.615Z,53.25
2023-08-13T09:22:22.652Z,50.49
2023-08-13T09:23:22.632Z,52.48
2023-08-13T09:24:22.648Z,52.31
2023-08-13T09:25:22.672Z,50.61
2023-08-13T09:26:22.736Z,52.06
2023-08-13T09:27:22.793Z,53.57
2023-08-13T09:28:22.792Z,55.15
2023-08-13T09:29:22.819Z,55.18
2023-08-13T09:30:22.837Z,52.95
2023-08-13T09:31:22.935Z,54.09
2023-08-13T09:32:22.937Z,53.50
2023-08-13T09:33:22.989Z,52.46
2023-08-13T09:34:23.023Z,56.30
2023-08-13T09:35:23.017Z,55.73
2023-08-13T09:36:23.069Z,56.00
2023-08-13T09:37:23.072Z,54.34
2023-08-13T09:38:23.117Z,56.04
2023-08-13T09:39:23.160Z,53.79
2023-08-13T09:40:23.218Z,52.95
2023-08-13T09:41:23.164Z,53.08
2023-08-13T09:42:23.182Z,52.61
2023-08-13T09:43:23.209Z,50.71
2023-08-13T09:44:23.179Z,52.11
2023-08-13T09:45:23.211Z,52.61
2023-08-13T09:46:23.240Z,51.35
2023-08-13T09:47:23.271Z,52.26
2023-08-13T09:48:23.287Z,52.90
2023-08-13T09:49:23.318Z,51.07
2023-08-13T09:50:23.338Z,53.89
2023-08-13T09:51:33.544Z,53.10
2023-08-13T09:52:23.424Z,54.75
2023-08-13T09:53:23.459Z,54.11
2023-08-13T09:54:23.450Z,51.72
2023-08-13T09:55:23.499Z,52.46
2023-08-13T09:56:23.453Z,53.07
2023-08-13T09:57:23.460Z,50.81
2023-08-13T09:58:23.511Z,52.23
2023-08-13T09:59:23.550Z,52.11
2023-08-13T10:00:23.650Z,52.85
2023-08-13T10:01:23.708Z,52.68
2023-08-13T10:02:23.657Z,52.98
2023-08-13T10:03:23.813Z,54.06
2023-08-13T10:04:23.714Z,54.44
2023-08-13T10:05:23.724Z,52.98
2023-08-13T10:06:23.778Z,52.55
2023-08-13T10:07:23.775Z,49.23
2023-08-13T10:08:23.826Z,49.19
2023-08-13T10:09:23.859Z,48.30
2023-08-13T10:10:23.903Z,47.52
2023-08-13T10:11:23.918Z,47.89
2023-08-13T10:12:23.867Z,46.31
2023-08-13T10:13:23.873Z,47.91
2023-08-13T10:14:23.890Z,47.56
2023-08-13T10:15:23.929Z,48.57
2023-08-13T10:16:24.000Z,49.33
2023-08-13T10:17:24.092Z,49.52
2023-08-13T10:18:23.993Z,50.61
2023-08-13T10:19:24.069Z,50.21
2023-08-13T10:20:24.077Z,51.37
2023-08-13T10:21:24.127Z,51.25
2023-08-13T10:22:24.186Z,51.13
2023-08-13T10:23:24.255Z,52.39
2023-08-13T10:24:24.339Z,51.84
2023-08-13T10:25:24.293Z,49.82
2023-08-13T10:26:24.334Z,51.47
2023-08-13T10:27:24.340Z,51.35
2023-08-13T10:28:24.347Z,49.50
2023-08-13T10:29:24.424Z,50.24
2023-08-13T10:30:24.501Z,49.33
2023-08-13T10:31:24.569Z,49.41
2023-08-13T10:32:24.527Z,47.99
2023-08-13T10:33:24.535Z,48.43
2023-08-13T10:34:24.556Z,46.13
2023-08-13T10:35:24.569Z,45.72
2023-08-13T10:36:24.602Z,45.95
2023-08-13T10:37:24.628Z,49.18
2023-08-13T10:38:24.597Z,50.44
2023-08-13T10:39:24.663Z,50.63
2023-08-13T10:40:24.695Z,50.04
2023-08-13T10:41:24.773Z,50.49
2023-08-13T10:42:24.795Z,49.80
2023-08-13T10:43:24.863Z,49.21
2023-08-13T10:44:24.848Z,50.61
2023-08-13T10:45:24.847Z,50.29
2023-08-13T10:46:24.959Z,48.57
2023-08-13T10:47:24.920Z,48.74
2023-08-13T10:48:24.964Z,47.78
2023-08-13T10:49:25.148Z,48.84
2023-08-13T10:50:25.150Z,48.84
2023-08-13T10:51:25.171Z,47.78
2023-08-13T10:52:25.112Z,50.39
2023-08-13T10:53:25.215Z,50.88
2023-08-13T10:54:25.167Z,49.40
2023-08-13T10:55:25.191Z,49.77
2023-08-13T10:56:25.196Z,51.18
2023-08-13T10:57:25.221Z,48.69
2023-08-13T10:58:25.276Z,49.60
2023-08-13T10:59:25.542Z,50.09
2023-08-13T11:00:25.354Z,49.38
2023-08-13T11:01:25.283Z,49.87
2023-08-13T11:02:25.806Z,49.63
2023-08-13T11:03:25.487Z,48.82
2023-08-13T11:04:25.334Z,48.27
2023-08-13T11:05:25.370Z,48.96
2023-08-13T11:06:25.372Z,49.16
2023-08-13T11:07:25.395Z,49.26
2023-08-13T11:08:37.864Z,48.62
2023-08-13T11:09:37.557Z,48.37
2023-08-13T11:10:25.487Z,47.76
2023-08-13T11:11:25.681Z,48.77
2023-08-13T11:12:25.581Z,50.09
2023-08-13T11:13:25.622Z,49.21
2023-08-13T11:14:25.660Z,48.44
2023-08-13T11:15:25.601Z,50.09
2023-08-13T11:16:25.653Z,50.56
2023-08-13T11:17:25.649Z,50.36
2023-08-13T11:18:25.595Z,49.87
2023-08-13T11:19:25.656Z,50.78
2023-08-13T11:20:25.673Z,49.95
2023-08-13T11:21:25.691Z,49.95
2023-08-13T11:22:25.746Z,49.85
2023-08-13T11:23:25.753Z,50.34
2023-08-13T11:24:25.839Z,51.28
2023-08-13T11:25:25.822Z,50.49
2023-08-13T11:26:25.821Z,51.40
2023-08-13T11:27:25.811Z,50.85
2023-08-13T11:28:25.853Z,51.89
2023-08-13T11:29:25.932Z,52.26
2023-08-13T11:30:25.917Z,50.34
2023-08-13T11:31:25.900Z,51.18
2023-08-13T11:32:25.930Z,49.95
2023-08-13T11:33:26.294Z,47.96
2023-08-13T11:34:25.976Z,48.45
2023-08-13T11:35:26.064Z,47.71
2023-08-13T11:36:26.102Z,46.71
2023-08-13T11:37:26.104Z,46.04
2023-08-13T11:38:26.101Z,48.25
2023-08-13T11:39:28.696Z,47.39
2023-08-13T11:40:34.419Z,47.36
2023-08-13T11:41:26.197Z,47.78
2023-08-13T11:42:26.377Z,48.22
2023-08-13T11:43:26.349Z,48.82
2023-08-13T11:44:26.333Z,48.82
2023-08-13T11:45:26.432Z,47.96
2023-08-13T11:46:26.387Z,48.57
2023-08-13T11:47:26.437Z,47.67
2023-08-13T11:48:26.435Z,45.47
2023-08-13T11:49:26.436Z,45.54
2023-08-13T11:50:26.501Z,46.08
2023-08-13T11:51:26.493Z,43.44
2023-08-13T11:52:26.661Z,44.44
2023-08-13T11:53:26.614Z,44.55
2023-08-13T11:54:26.655Z,46.90
2023-08-13T11:55:26.684Z,48.32
2023-08-13T11:56:26.755Z,48.91
2023-08-13T11:57:26.808Z,49.30
2023-08-13T11:58:26.807Z,49.92
2023-08-13T11:59:26.784Z,49.45
2023-08-13T12:00:26.841Z,50.61
2023-08-13T12:01:26.947Z,50.54
2023-08-13T12:02:26.880Z,50.93
2023-08-13T12:03:26.979Z,50.83
2023-08-13T12:04:28.914Z,50.71
2023-08-13T12:05:27.015Z,49.13
2023-08-13T12:06:27.066Z,49.43
2023-08-13T12:07:27.121Z,49.50
2023-08-13T12:08:27.170Z,49.30
2023-08-13T12:09:27.233Z,47.58
2023-08-13T12:10:27.291Z,47.47
2023-08-13T12:11:27.359Z,48.91
2023-08-13T12:12:27.341Z,48.61
2023-08-13T12:13:27.309Z,49.90
2023-08-13T12:14:27.412Z,49.11
2023-08-13T12:15:27.579Z,49.30
2023-08-13T12:16:27.936Z,48.91
2023-08-13T12:17:28.378Z,50.09
2023-08-13T12:18:27.557Z,48.94
2023-08-13T12:19:27.452Z,48.77
2023-08-13T12:20:27.565Z,49.38
2023-08-13T12:21:27.564Z,49.97
2023-08-13T12:22:27.733Z,50.34
2023-08-13T12:23:28.591Z,50.71
2023-08-13T12:24:27.799Z,49.70
2023-08-13T12:25:27.816Z,50.81
2023-08-13T12:26:27.678Z,49.92
2023-08-13T12:27:28.048Z,50.09
2023-08-13T12:28:27.826Z,50.21
2023-08-13T12:29:29.028Z,50.83
2023-08-13T12:30:27.965Z,49.85
2023-08-13T12:31:27.948Z,51.72
2023-08-13T12:32:28.893Z,49.33
2023-08-13T12:33:28.177Z,49.90
2023-08-13T12:34:27.949Z,49.99
2023-08-13T12:35:27.992Z,51.23
2023-08-13T12:36:29.470Z,52.31
2023-08-13T12:37:28.075Z,51.32
2023-08-13T12:38:28.237Z,51.10
2023-08-13T12:39:28.194Z,50.59
2023-08-13T12:40:28.281Z,49.77
2023-08-13T12:41:39.305Z,51.23
2023-08-13T12:42:28.270Z,50.34
2023-08-13T12:43:28.447Z,50.68
2023-08-13T12:44:28.306Z,49.75
2023-08-13T12:45:28.329Z,50.78
2023-08-13T12:46:28.380Z,51.30
2023-08-13T12:47:28.396Z,50.59
2023-08-13T12:48:28.417Z,49.77
2023-08-13T12:49:28.430Z,49.46
2023-08-13T12:50:28.604Z,49.48
2023-08-13T12:51:28.544Z,49.95
2023-08-13T12:52:28.752Z,49.16
2023-08-13T12:53:28.670Z,48.59
2023-08-13T12:54:28.621Z,48.15
2023-08-13T12:55:28.667Z,49.82